sensor_id;sensor_type;location;lat;lon;timestamp;P1;P2;P0
38451;PMS5003;24231;52.514;13.438;2023-03-01T00:03:03;34;29;
38451;PMS5003;24231;52.514;13.438;2023-03-01T00:05:30;30;25;
38451;PMS5003;24231;52.514;13.438;2023-03-01T00:07:58;27;22;
38451;PMS5003;24231;52.514;13.438;2023-03-01T00:10:25;29;26;
38451;PMS5003;24231;52.514;13.438;2023-03-01T00:12:52;31;29;
38451;PMS5003;24231;52.514;13.438;2023-03-01T00:15:19;28;25;
38451;PMS5003;24231;52.514;13.438;2023-03-01T00:17:46;28;20;
38451;PMS5003;24231;52.514;13.438;2023-03-01T00:20:13;33;29;
38451;PMS5003;24231;52.514;13.438;2023-03-01T00:22:40;30;26;
38451;PMS5003;24231;52.514;13.438;2023-03-01T00:25:08;33;26;
38451;PMS5003;24231;52.514;13.438;2023-03-01T00:27:35;31;31;
38451;PMS5003;24231;52.514;13.438;2023-03-01T00:30:02;23;23;
38451;PMS5003;24231;52.514;13.438;2023-03-01T00:32:30;26;20;
38451;PMS5003;24231;52.514;13.438;2023-03-01T00:34:57;27;24;
38451;PMS5003;24231;52.514;13.438;2023-03-01T00:37:24;29;26;
38451;PMS5003;24231;52.514;13.438;2023-03-01T00:39:52;24;20;
38451;PMS5003;24231;52.514;13.438;2023-03-01T00:42:19;19;19;
38451;PMS5003;24231;52.514;13.438;2023-03-01T00:44:45;21;19;
38451;PMS5003;24231;52.514;13.438;2023-03-01T00:47:12;27;20;
38451;PMS5003;24231;52.514;13.438;2023-03-01T00:49:39;30;26;
38451;PMS5003;24231;52.514;13.438;2023-03-01T00:52:06;28;23;
38451;PMS5003;24231;52.514;13.438;2023-03-01T00:54:33;32;30;
38451;PMS5003;24231;52.514;13.438;2023-03-01T00:57:01;32;26;
38451;PMS5003;24231;52.514;13.438;2023-03-01T00:59:27;23;22;
38451;PMS5003;24231;52.514;13.438;2023-03-01T01:01:54;23;17;
38451;PMS5003;24231;52.514;13.438;2023-03-01T01:04:22;30;24;
38451;PMS5003;24231;52.514;13.438;2023-03-01T01:06:49;27;25;
38451;PMS5003;24231;52.514;13.438;2023-03-01T01:09:16;20;18;
38451;PMS5003;24231;52.514;13.438;2023-03-01T01:11:45;29;24;
38451;PMS5003;24231;52.514;13.438;2023-03-01T01:14:14;23;17;
38451;PMS5003;24231;52.514;13.438;2023-03-01T01:16:43;25;21;
38451;PMS5003;24231;52.514;13.438;2023-03-01T01:19:11;29;26;
38451;PMS5003;24231;52.514;13.438;2023-03-01T01:21:38;27;25;
38451;PMS5003;24231;52.514;13.438;2023-03-01T01:24:06;20;20;
38451;PMS5003;24231;52.514;13.438;2023-03-01T01:26:33;26;24;
38451;PMS5003;24231;52.514;13.438;2023-03-01T01:29:02;26;24;
38451;PMS5003;24231;52.514;13.438;2023-03-01T01:31:31;26;25;
38451;PMS5003;24231;52.514;13.438;2023-03-01T01:34:00;30;25;
38451;PMS5003;24231;52.514;13.438;2023-03-01T01:36:28;25;23;
38451;PMS5003;24231;52.514;13.438;2023-03-01T01:38:56;30;25;
38451;PMS5003;24231;52.514;13.438;2023-03-01T01:41:23;37;29;
38451;PMS5003;24231;52.514;13.438;2023-03-01T01:44:10;28;23;
38451;PMS5003;24231;52.514;13.438;2023-03-01T01:46:40;25;24;
38451;PMS5003;24231;52.514;13.438;2023-03-01T01:49:17;30;30;
38451;PMS5003;24231;52.514;13.438;2023-03-01T01:51:49;32;28;
38451;PMS5003;24231;52.514;13.438;2023-03-01T01:54:23;32;23;
38451;PMS5003;24231;52.514;13.438;2023-03-01T01:56:55;28;26;
38451;PMS5003;24231;52.514;13.438;2023-03-01T01:59:26;30;26;
38451;PMS5003;24231;52.514;13.438;2023-03-01T02:01:56;32;26;
38451;PMS5003;24231;52.514;13.438;2023-03-01T02:04:27;35;30;
38451;PMS5003;24231;52.514;13.438;2023-03-01T02:06:56;28;26;
38451;PMS5003;24231;52.514;13.438;2023-03-01T02:09:27;26;24;
38451;PMS5003;24231;52.514;13.438;2023-03-01T02:11:57;35;30;
38451;PMS5003;24231;52.514;13.438;2023-03-01T02:14:25;31;28;
38451;PMS5003;24231;52.514;13.438;2023-03-01T02:16:52;24;23;
38451;PMS5003;24231;52.514;13.438;2023-03-01T02:19:22;29;25;
38451;PMS5003;24231;52.514;13.438;2023-03-01T02:22:00;25;22;
38451;PMS5003;24231;52.514;13.438;2023-03-01T02:24:39;27;24;
38451;PMS5003;24231;52.514;13.438;2023-03-01T02:27:13;29;21;
38451;PMS5003;24231;52.514;13.438;2023-03-01T02:29:44;29;28;
38451;PMS5003;24231;52.514;13.438;2023-03-01T02:32:11;29;22;
38451;PMS5003;24231;52.514;13.438;2023-03-01T02:34:40;35;28;
38451;PMS5003;24231;52.514;13.438;2023-03-01T02:37:09;21;20;
38451;PMS5003;24231;52.514;13.438;2023-03-01T02:39:40;35;28;
38451;PMS5003;24231;52.514;13.438;2023-03-01T02:42:15;31;26;
38451;PMS5003;24231;52.514;13.438;2023-03-01T02:44:47;25;25;
38451;PMS5003;24231;52.514;13.438;2023-03-01T02:47:15;33;29;
38451;PMS5003;24231;52.514;13.438;2023-03-01T02:49:45;30;24;
38451;PMS5003;24231;52.514;13.438;2023-03-01T02:52:23;32;24;
38451;PMS5003;24231;52.514;13.438;2023-03-01T02:55:00;35;29;
38451;PMS5003;24231;52.514;13.438;2023-03-01T02:57:31;29;25;
38451;PMS5003;24231;52.514;13.438;2023-03-01T03:00:00;30;23;
38451;PMS5003;24231;52.514;13.438;2023-03-01T03:02:31;32;29;
38451;PMS5003;24231;52.514;13.438;2023-03-01T03:04:58;29;24;
38451;PMS5003;24231;52.514;13.438;2023-03-01T03:07:25;30;27;
38451;PMS5003;24231;52.514;13.438;2023-03-01T03:09:52;27;24;
38451;PMS5003;24231;52.514;13.438;2023-03-01T03:12:19;30;28;
38451;PMS5003;24231;52.514;13.438;2023-03-01T03:14:46;28;24;
38451;PMS5003;24231;52.514;13.438;2023-03-01T03:17:14;30;24;
38451;PMS5003;24231;52.514;13.438;2023-03-01T03:19:41;27;27;
38451;PMS5003;24231;52.514;13.438;2023-03-01T03:22:08;37;27;
38451;PMS5003;24231;52.514;13.438;2023-03-01T03:24:35;27;24;
38451;PMS5003;24231;52.514;13.438;2023-03-01T03:27:03;32;27;
38451;PMS5003;24231;52.514;13.438;2023-03-01T03:29:30;32;28;
38451;PMS5003;24231;52.514;13.438;2023-03-01T03:31:58;29;19;
38451;PMS5003;24231;52.514;13.438;2023-03-01T03:34:25;32;28;
38451;PMS5003;24231;52.514;13.438;2023-03-01T03:36:53;35;31;
38451;PMS5003;24231;52.514;13.438;2023-03-01T03:39:20;34;28;
38451;PMS5003;24231;52.514;13.438;2023-03-01T03:41:47;38;33;
38451;PMS5003;24231;52.514;13.438;2023-03-01T03:44:14;34;27;
38451;PMS5003;24231;52.514;13.438;2023-03-01T03:46:41;33;23;
38451;PMS5003;24231;52.514;13.438;2023-03-01T03:49:07;28;22;
38451;PMS5003;24231;52.514;13.438;2023-03-01T03:51:35;27;22;
38451;PMS5003;24231;52.514;13.438;2023-03-01T03:54:02;33;27;
38451;PMS5003;24231;52.514;13.438;2023-03-01T03:56:30;30;24;
38451;PMS5003;24231;52.514;13.438;2023-03-01T03:58:58;33;27;
38451;PMS5003;24231;52.514;13.438;2023-03-01T04:01:25;32;28;
38451;PMS5003;24231;52.514;13.438;2023-03-01T04:03:52;35;32;
38451;PMS5003;24231;52.514;13.438;2023-03-01T04:06:20;30;27;
38451;PMS5003;24231;52.514;13.438;2023-03-01T04:08:48;34;32;
38451;PMS5003;24231;52.514;13.438;2023-03-01T04:11:14;35;30;
38451;PMS5003;24231;52.514;13.438;2023-03-01T04:13:42;30;24;
38451;PMS5003;24231;52.514;13.438;2023-03-01T04:16:09;31;28;
38451;PMS5003;24231;52.514;13.438;2023-03-01T04:18:37;41;30;
38451;PMS5003;24231;52.514;13.438;2023-03-01T04:21:04;32;32;
38451;PMS5003;24231;52.514;13.438;2023-03-01T04:23:31;35;29;
38451;PMS5003;24231;52.514;13.438;2023-03-01T04:25:59;32;26;
38451;PMS5003;24231;52.514;13.438;2023-03-01T04:28:26;45;35;
38451;PMS5003;24231;52.514;13.438;2023-03-01T04:30:56;37;33;
38451;PMS5003;24231;52.514;13.438;2023-03-01T04:33:24;51;38;
38451;PMS5003;24231;52.514;13.438;2023-03-01T04:35:53;27;23;
38451;PMS5003;24231;52.514;13.438;2023-03-01T04:38:20;43;32;
38451;PMS5003;24231;52.514;13.438;2023-03-01T04:40:47;38;34;
38451;PMS5003;24231;52.514;13.438;2023-03-01T04:43:14;40;34;
38451;PMS5003;24231;52.514;13.438;2023-03-01T04:45:41;35;31;
38451;PMS5003;24231;52.514;13.438;2023-03-01T04:48:09;34;32;
38451;PMS5003;24231;52.514;13.438;2023-03-01T04:50:36;55;47;
38451;PMS5003;24231;52.514;13.438;2023-03-01T04:53:04;43;39;
38451;PMS5003;24231;52.514;13.438;2023-03-01T04:55:31;40;38;
38451;PMS5003;24231;52.514;13.438;2023-03-01T04:58:00;35;29;
38451;PMS5003;24231;52.514;13.438;2023-03-01T05:00:27;42;33;
38451;PMS5003;24231;52.514;13.438;2023-03-01T05:02:54;35;28;
38451;PMS5003;24231;52.514;13.438;2023-03-01T05:05:24;32;27;
38451;PMS5003;24231;52.514;13.438;2023-03-01T05:07:53;41;38;
38451;PMS5003;24231;52.514;13.438;2023-03-01T05:10:22;36;32;
38451;PMS5003;24231;52.514;13.438;2023-03-01T05:12:50;40;34;
38451;PMS5003;24231;52.514;13.438;2023-03-01T05:15:17;36;31;
38451;PMS5003;24231;52.514;13.438;2023-03-01T05:17:45;36;32;
38451;PMS5003;24231;52.514;13.438;2023-03-01T05:20:12;40;38;
38451;PMS5003;24231;52.514;13.438;2023-03-01T05:22:40;48;38;
38451;PMS5003;24231;52.514;13.438;2023-03-01T05:25:07;39;35;
38451;PMS5003;24231;52.514;13.438;2023-03-01T05:27:34;37;28;
38451;PMS5003;24231;52.514;13.438;2023-03-01T05:30:01;40;29;
38451;PMS5003;24231;52.514;13.438;2023-03-01T05:32:29;40;35;
38451;PMS5003;24231;52.514;13.438;2023-03-01T05:34:57;42;33;
38451;PMS5003;24231;52.514;13.438;2023-03-01T05:37:24;41;32;
38451;PMS5003;24231;52.514;13.438;2023-03-01T05:39:51;41;35;
38451;PMS5003;24231;52.514;13.438;2023-03-01T05:42:19;43;37;
38451;PMS5003;24231;52.514;13.438;2023-03-01T05:44:45;45;38;
38451;PMS5003;24231;52.514;13.438;2023-03-01T05:47:13;47;40;
38451;PMS5003;24231;52.514;13.438;2023-03-01T05:49:40;41;33;
38451;PMS5003;24231;52.514;13.438;2023-03-01T05:52:07;51;42;
38451;PMS5003;24231;52.514;13.438;2023-03-01T05:54:35;39;37;
38451;PMS5003;24231;52.514;13.438;2023-03-01T05:57:03;38;35;
38451;PMS5003;24231;52.514;13.438;2023-03-01T05:59:30;46;40;
38451;PMS5003;24231;52.514;13.438;2023-03-01T06:01:57;35;30;
38451;PMS5003;24231;52.514;13.438;2023-03-01T06:04:24;44;38;
38451;PMS5003;24231;52.514;13.438;2023-03-01T06:06:52;44;39;
38451;PMS5003;24231;52.514;13.438;2023-03-01T06:09:19;37;30;
38451;PMS5003;24231;52.514;13.438;2023-03-01T06:11:46;37;34;
38451;PMS5003;24231;52.514;13.438;2023-03-01T06:14:13;38;37;
38451;PMS5003;24231;52.514;13.438;2023-03-01T06:16:41;37;33;
38451;PMS5003;24231;52.514;13.438;2023-03-01T06:19:08;31;30;
38451;PMS5003;24231;52.514;13.438;2023-03-01T06:21:35;35;28;
38451;PMS5003;24231;52.514;13.438;2023-03-01T06:24:03;35;31;
38451;PMS5003;24231;52.514;13.438;2023-03-01T06:26:30;44;37;
38451;PMS5003;24231;52.514;13.438;2023-03-01T06:28:57;84;71;
38451;PMS5003;24231;52.514;13.438;2023-03-01T06:31:24;62;48;
38451;PMS5003;24231;52.514;13.438;2023-03-01T06:33:51;52;45;
38451;PMS5003;24231;52.514;13.438;2023-03-01T06:36:18;47;40;
38451;PMS5003;24231;52.514;13.438;2023-03-01T06:38:45;43;41;
38451;PMS5003;24231;52.514;13.438;2023-03-01T06:41:13;43;36;
38451;PMS5003;24231;52.514;13.438;2023-03-01T06:43:40;43;37;
38451;PMS5003;24231;52.514;13.438;2023-03-01T06:46:08;47;40;
38451;PMS5003;24231;52.514;13.438;2023-03-01T06:48:35;45;41;
38451;PMS5003;24231;52.514;13.438;2023-03-01T06:51:02;37;34;
38451;PMS5003;24231;52.514;13.438;2023-03-01T06:53:30;36;34;
38451;PMS5003;24231;52.514;13.438;2023-03-01T06:55:58;47;40;
38451;PMS5003;24231;52.514;13.438;2023-03-01T06:58:30;43;37;
38451;PMS5003;24231;52.514;13.438;2023-03-01T07:00:58;33;30;
38451;PMS5003;24231;52.514;13.438;2023-03-01T07:03:26;52;40;
38451;PMS5003;24231;52.514;13.438;2023-03-01T07:05:53;40;32;
38451;PMS5003;24231;52.514;13.438;2023-03-01T07:08:19;65;52;
38451;PMS5003;24231;52.514;13.438;2023-03-01T07:10:47;57;50;
38451;PMS5003;24231;52.514;13.438;2023-03-01T07:13:14;42;40;
38451;PMS5003;24231;52.514;13.438;2023-03-01T07:15:41;46;38;
38451;PMS5003;24231;52.514;13.438;2023-03-01T07:18:08;64;58;
38451;PMS5003;24231;52.514;13.438;2023-03-01T07:20:36;50;36;
38451;PMS5003;24231;52.514;13.438;2023-03-01T07:23:03;51;37;
38451;PMS5003;24231;52.514;13.438;2023-03-01T07:25:32;41;37;
38451;PMS5003;24231;52.514;13.438;2023-03-01T07:27:59;40;34;
38451;PMS5003;24231;52.514;13.438;2023-03-01T07:30:27;54;39;
38451;PMS5003;24231;52.514;13.438;2023-03-01T07:32:54;51;41;
38451;PMS5003;24231;52.514;13.438;2023-03-01T07:35:21;41;38;
38451;PMS5003;24231;52.514;13.438;2023-03-01T07:37:49;51;45;
38451;PMS5003;24231;52.514;13.438;2023-03-01T07:40:16;77;67;
38451;PMS5003;24231;52.514;13.438;2023-03-01T07:42:43;45;41;
38451;PMS5003;24231;52.514;13.438;2023-03-01T07:45:10;46;43;
38451;PMS5003;24231;52.514;13.438;2023-03-01T07:47:38;33;29;
38451;PMS5003;24231;52.514;13.438;2023-03-01T07:50:05;39;32;
38451;PMS5003;24231;52.514;13.438;2023-03-01T07:52:32;33;27;
38451;PMS5003;24231;52.514;13.438;2023-03-01T07:54:59;46;37;
38451;PMS5003;24231;52.514;13.438;2023-03-01T07:57:26;33;30;
38451;PMS5003;24231;52.514;13.438;2023-03-01T07:59:54;25;23;
38451;PMS5003;24231;52.514;13.438;2023-03-01T08:02:21;27;27;
38451;PMS5003;24231;52.514;13.438;2023-03-01T08:04:48;30;25;
38451;PMS5003;24231;52.514;13.438;2023-03-01T08:07:15;27;26;
38451;PMS5003;24231;52.514;13.438;2023-03-01T08:09:42;35;31;
38451;PMS5003;24231;52.514;13.438;2023-03-01T08:12:10;34;31;
38451;PMS5003;24231;52.514;13.438;2023-03-01T08:14:37;23;22;
38451;PMS5003;24231;52.514;13.438;2023-03-01T08:17:04;29;28;
38451;PMS5003;24231;52.514;13.438;2023-03-01T08:19:31;22;22;
38451;PMS5003;24231;52.514;13.438;2023-03-01T08:21:58;33;28;
38451;PMS5003;24231;52.514;13.438;2023-03-01T08:24:26;34;30;
38451;PMS5003;24231;52.514;13.438;2023-03-01T08:26:53;28;24;
38451;PMS5003;24231;52.514;13.438;2023-03-01T08:29:21;28;24;
38451;PMS5003;24231;52.514;13.438;2023-03-01T08:31:48;26;24;
38451;PMS5003;24231;52.514;13.438;2023-03-01T08:34:16;27;22;
38451;PMS5003;24231;52.514;13.438;2023-03-01T08:36:45;27;24;
38451;PMS5003;24231;52.514;13.438;2023-03-01T08:39:15;23;17;
38451;PMS5003;24231;52.514;13.438;2023-03-01T08:41:43;22;22;
38451;PMS5003;24231;52.514;13.438;2023-03-01T08:44:11;20;18;
38451;PMS5003;24231;52.514;13.438;2023-03-01T08:46:41;16;16;
38451;PMS5003;24231;52.514;13.438;2023-03-01T08:49:10;18;15;
38451;PMS5003;24231;52.514;13.438;2023-03-01T08:51:40;16;15;
38451;PMS5003;24231;52.514;13.438;2023-03-01T08:54:09;19;16;
38451;PMS5003;24231;52.514;13.438;2023-03-01T08:56:39;18;16;
38451;PMS5003;24231;52.514;13.438;2023-03-01T08:59:06;20;17;
38451;PMS5003;24231;52.514;13.438;2023-03-01T09:01:33;16;15;
38451;PMS5003;24231;52.514;13.438;2023-03-01T09:04:01;14;14;
38451;PMS5003;24231;52.514;13.438;2023-03-01T09:06:29;16;15;
38451;PMS5003;24231;52.514;13.438;2023-03-01T09:08:57;12;11;
38451;PMS5003;24231;52.514;13.438;2023-03-01T09:11:24;11;9;
38451;PMS5003;24231;52.514;13.438;2023-03-01T09:13:52;16;12;
38451;PMS5003;24231;52.514;13.438;2023-03-01T09:16:20;16;13;
38451;PMS5003;24231;52.514;13.438;2023-03-01T09:18:48;13;12;
38451;PMS5003;24231;52.514;13.438;2023-03-01T09:21:16;11;10;
38451;PMS5003;24231;52.514;13.438;2023-03-01T09:23:49;10;9;
38451;PMS5003;24231;52.514;13.438;2023-03-01T09:26:17;15;10;
38451;PMS5003;24231;52.514;13.438;2023-03-01T09:28:47;13;11;
38451;PMS5003;24231;52.514;13.438;2023-03-01T09:31:16;16;14;
38451;PMS5003;24231;52.514;13.438;2023-03-01T09:33:45;20;16;
38451;PMS5003;24231;52.514;13.438;2023-03-01T09:36:23;13;11;
38451;PMS5003;24231;52.514;13.438;2023-03-01T09:38:52;11;8;
38451;PMS5003;24231;52.514;13.438;2023-03-01T09:41:23;10;8;
38451;PMS5003;24231;52.514;13.438;2023-03-01T09:44:03;12;10;
38451;PMS5003;24231;52.514;13.438;2023-03-01T09:46:38;9;7;
38451;PMS5003;24231;52.514;13.438;2023-03-01T09:49:10;7;7;
38451;PMS5003;24231;52.514;13.438;2023-03-01T09:51:41;6;6;
38451;PMS5003;24231;52.514;13.438;2023-03-01T09:54:09;11;7;
38451;PMS5003;24231;52.514;13.438;2023-03-01T09:56:39;5;5;
38451;PMS5003;24231;52.514;13.438;2023-03-01T09:59:14;9;8;
38451;PMS5003;24231;52.514;13.438;2023-03-01T10:01:46;8;8;
38451;PMS5003;24231;52.514;13.438;2023-03-01T10:04:24;7;7;
38451;PMS5003;24231;52.514;13.438;2023-03-01T10:06:58;10;7;
38451;PMS5003;24231;52.514;13.438;2023-03-01T10:09:39;10;9;
38451;PMS5003;24231;52.514;13.438;2023-03-01T10:12:09;10;8;
38451;PMS5003;24231;52.514;13.438;2023-03-01T10:14:42;11;11;
38451;PMS5003;24231;52.514;13.438;2023-03-01T10:17:19;10;10;
38451;PMS5003;24231;52.514;13.438;2023-03-01T10:19:51;10;9;
38451;PMS5003;24231;52.514;13.438;2023-03-01T10:22:19;9;9;
38451;PMS5003;24231;52.514;13.438;2023-03-01T10:24:49;12;8;
38451;PMS5003;24231;52.514;13.438;2023-03-01T10:27:19;10;7;
38451;PMS5003;24231;52.514;13.438;2023-03-01T10:29:51;10;10;
38451;PMS5003;24231;52.514;13.438;2023-03-01T10:32:26;13;10;
38451;PMS5003;24231;52.514;13.438;2023-03-01T10:34:53;13;8;
38451;PMS5003;24231;52.514;13.438;2023-03-01T10:37:21;10;9;
38451;PMS5003;24231;52.514;13.438;2023-03-01T10:40:05;14;12;
38451;PMS5003;24231;52.514;13.438;2023-03-01T10:42:34;10;10;
38451;PMS5003;24231;52.514;13.438;2023-03-01T10:45:26;8;8;
38451;PMS5003;24231;52.514;13.438;2023-03-01T10:48:08;10;8;
38451;PMS5003;24231;52.514;13.438;2023-03-01T10:50:39;6;6;
38451;PMS5003;24231;52.514;13.438;2023-03-01T10:53:18;8;8;
38451;PMS5003;24231;52.514;13.438;2023-03-01T10:55:56;8;7;
38451;PMS5003;24231;52.514;13.438;2023-03-01T10:58:26;10;9;
38451;PMS5003;24231;52.514;13.438;2023-03-01T11:00:54;8;6;
38451;PMS5003;24231;52.514;13.438;2023-03-01T11:03:23;7;7;
38451;PMS5003;24231;52.514;13.438;2023-03-01T11:05:54;5;5;
38451;PMS5003;24231;52.514;13.438;2023-03-01T11:08:31;6;5;
38451;PMS5003;24231;52.514;13.438;2023-03-01T11:11:06;7;5;
38451;PMS5003;24231;52.514;13.438;2023-03-01T11:13:57;6;5;
38451;PMS5003;24231;52.514;13.438;2023-03-01T11:16:30;8;6;
38451;PMS5003;24231;52.514;13.438;2023-03-01T11:19:00;8;7;
38451;PMS5003;24231;52.514;13.438;2023-03-01T11:21:41;7;7;
38451;PMS5003;24231;52.514;13.438;2023-03-01T11:24:14;5;5;
38451;PMS5003;24231;52.514;13.438;2023-03-01T11:26:44;7;6;
38451;PMS5003;24231;52.514;13.438;2023-03-01T11:29:18;4;4;
38451;PMS5003;24231;52.514;13.438;2023-03-01T11:31:56;4;4;
38451;PMS5003;24231;52.514;13.438;2023-03-01T11:34:32;5;4;
38451;PMS5003;24231;52.514;13.438;2023-03-01T11:37:10;5;5;
38451;PMS5003;24231;52.514;13.438;2023-03-01T11:39:49;7;4;
38451;PMS5003;24231;52.514;13.438;2023-03-01T11:42:37;9;5;
38451;PMS5003;24231;52.514;13.438;2023-03-01T11:45:13;3;3;
38451;PMS5003;24231;52.514;13.438;2023-03-01T11:47:44;7;6;
38451;PMS5003;24231;52.514;13.438;2023-03-01T11:50:26;6;6;
38451;PMS5003;24231;52.514;13.438;2023-03-01T11:53:02;6;4;
38451;PMS5003;24231;52.514;13.438;2023-03-01T11:55:46;6;5;
38451;PMS5003;24231;52.514;13.438;2023-03-01T11:58:34;5;5;
38451;PMS5003;24231;52.514;13.438;2023-03-01T12:01:15;4;3;
38451;PMS5003;24231;52.514;13.438;2023-03-01T12:03:57;2;2;
38451;PMS5003;24231;52.514;13.438;2023-03-01T12:06:47;3;3;
38451;PMS5003;24231;52.514;13.438;2023-03-01T12:09:27;6;2;
38451;PMS5003;24231;52.514;13.438;2023-03-01T12:12:09;4;3;
38451;PMS5003;24231;52.514;13.438;2023-03-01T12:14:52;5;5;
38451;PMS5003;24231;52.514;13.438;2023-03-01T12:17:32;5;3;
38451;PMS5003;24231;52.514;13.438;2023-03-01T12:20:21;8;5;
38451;PMS5003;24231;52.514;13.438;2023-03-01T12:23:02;4;4;
38451;PMS5003;24231;52.514;13.438;2023-03-01T12:25:44;4;3;
38451;PMS5003;24231;52.514;13.438;2023-03-01T12:28:50;4;4;
38451;PMS5003;24231;52.514;13.438;2023-03-01T12:32:38;4;3;
38451;PMS5003;24231;52.514;13.438;2023-03-01T12:35:18;8;6;
38451;PMS5003;24231;52.514;13.438;2023-03-01T12:38:02;7;4;
38451;PMS5003;24231;52.514;13.438;2023-03-01T12:40:46;4;4;
38451;PMS5003;24231;52.514;13.438;2023-03-01T12:43:32;3;3;
38451;PMS5003;24231;52.514;13.438;2023-03-01T12:46:10;2;1;
38451;PMS5003;24231;52.514;13.438;2023-03-01T12:48:50;5;3;
38451;PMS5003;24231;52.514;13.438;2023-03-01T12:51:30;5;3;
38451;PMS5003;24231;52.514;13.438;2023-03-01T12:54:00;4;4;
38451;PMS5003;24231;52.514;13.438;2023-03-01T12:56:35;2;2;
38451;PMS5003;24231;52.514;13.438;2023-03-01T12:59:06;4;3;
38451;PMS5003;24231;52.514;13.438;2023-03-01T13:01:42;3;3;
38451;PMS5003;24231;52.514;13.438;2023-03-01T13:04:18;4;4;
38451;PMS5003;24231;52.514;13.438;2023-03-01T13:07:02;5;4;
38451;PMS5003;24231;52.514;13.438;2023-03-01T13:09:43;8;6;
38451;PMS5003;24231;52.514;13.438;2023-03-01T13:13:21;6;3;
38451;PMS5003;24231;52.514;13.438;2023-03-01T13:15:51;3;3;
38451;PMS5003;24231;52.514;13.438;2023-03-01T13:18:27;5;4;
38451;PMS5003;24231;52.514;13.438;2023-03-01T13:20:56;4;4;
38451;PMS5003;24231;52.514;13.438;2023-03-01T13:23:28;4;4;
38451;PMS5003;24231;52.514;13.438;2023-03-01T13:26:02;4;3;
38451;PMS5003;24231;52.514;13.438;2023-03-01T13:28:39;2;2;
38451;PMS5003;24231;52.514;13.438;2023-03-01T13:31:55;8;4;
38451;PMS5003;24231;52.514;13.438;2023-03-01T13:34:39;5;3;
38451;PMS5003;24231;52.514;13.438;2023-03-01T13:37:10;5;4;
38451;PMS5003;24231;52.514;13.438;2023-03-01T13:39:45;9;6;
38451;PMS5003;24231;52.514;13.438;2023-03-01T13:42:45;4;2;
38451;PMS5003;24231;52.514;13.438;2023-03-01T13:45:23;5;3;
38451;PMS5003;24231;52.514;13.438;2023-03-01T13:48:01;3;3;
38451;PMS5003;24231;52.514;13.438;2023-03-01T13:50:36;8;7;
38451;PMS5003;24231;52.514;13.438;2023-03-01T13:53:28;8;6;
38451;PMS5003;24231;52.514;13.438;2023-03-01T13:55:58;6;5;
38451;PMS5003;24231;52.514;13.438;2023-03-01T13:58:29;5;4;
38451;PMS5003;24231;52.514;13.438;2023-03-01T14:01:00;9;7;
38451;PMS5003;24231;52.514;13.438;2023-03-01T14:03:29;3;3;
38451;PMS5003;24231;52.514;13.438;2023-03-01T14:05:59;5;4;
38451;PMS5003;24231;52.514;13.438;2023-03-01T14:08:30;10;8;
38451;PMS5003;24231;52.514;13.438;2023-03-01T14:11:03;5;5;
38451;PMS5003;24231;52.514;13.438;2023-03-01T14:13:54;5;5;
38451;PMS5003;24231;52.514;13.438;2023-03-01T14:16:35;8;6;
38451;PMS5003;24231;52.514;13.438;2023-03-01T14:19:14;8;7;
38451;PMS5003;24231;52.514;13.438;2023-03-01T14:21:43;3;3;
38451;PMS5003;24231;52.514;13.438;2023-03-01T14:24:18;4;3;
38451;PMS5003;24231;52.514;13.438;2023-03-01T14:26:48;2;2;
38451;PMS5003;24231;52.514;13.438;2023-03-01T14:29:24;5;4;
38451;PMS5003;24231;52.514;13.438;2023-03-01T14:32:08;6;6;
38451;PMS5003;24231;52.514;13.438;2023-03-01T14:34:38;5;3;
38451;PMS5003;24231;52.514;13.438;2023-03-01T14:37:10;5;5;
38451;PMS5003;24231;52.514;13.438;2023-03-01T14:39:44;4;3;
38451;PMS5003;24231;52.514;13.438;2023-03-01T14:42:12;4;3;
38451;PMS5003;24231;52.514;13.438;2023-03-01T14:44:40;5;3;
38451;PMS5003;24231;52.514;13.438;2023-03-01T14:47:11;2;2;
38451;PMS5003;24231;52.514;13.438;2023-03-01T14:49:41;3;3;
38451;PMS5003;24231;52.514;13.438;2023-03-01T14:52:17;6;3;
38451;PMS5003;24231;52.514;13.438;2023-03-01T14:54:48;5;5;
38451;PMS5003;24231;52.514;13.438;2023-03-01T14:57:19;5;4;
38451;PMS5003;24231;52.514;13.438;2023-03-01T14:59:48;12;8;
38451;PMS5003;24231;52.514;13.438;2023-03-01T15:02:17;8;6;
38451;PMS5003;24231;52.514;13.438;2023-03-01T15:04:54;3;3;
38451;PMS5003;24231;52.514;13.438;2023-03-01T15:07:24;5;5;
38451;PMS5003;24231;52.514;13.438;2023-03-01T15:09:56;4;4;
38451;PMS5003;24231;52.514;13.438;2023-03-01T15:12:31;5;5;
38451;PMS5003;24231;52.514;13.438;2023-03-01T15:15:19;7;7;
38451;PMS5003;24231;52.514;13.438;2023-03-01T15:17:51;8;5;
38451;PMS5003;24231;52.514;13.438;2023-03-01T15:20:20;5;4;
38451;PMS5003;24231;52.514;13.438;2023-03-01T15:22:50;5;5;
38451;PMS5003;24231;52.514;13.438;2023-03-01T15:25:19;4;4;
38451;PMS5003;24231;52.514;13.438;2023-03-01T15:27:50;7;7;
38451;PMS5003;24231;52.514;13.438;2023-03-01T15:30:20;4;4;
38451;PMS5003;24231;52.514;13.438;2023-03-01T15:33:15;3;3;
38451;PMS5003;24231;52.514;13.438;2023-03-01T15:35:44;7;6;
38451;PMS5003;24231;52.514;13.438;2023-03-01T15:38:30;3;3;
38451;PMS5003;24231;52.514;13.438;2023-03-01T15:41:00;6;6;
38451;PMS5003;24231;52.514;13.438;2023-03-01T15:43:37;4;3;
38451;PMS5003;24231;52.514;13.438;2023-03-01T15:46:12;5;5;
38451;PMS5003;24231;52.514;13.438;2023-03-01T15:48:45;7;4;
38451;PMS5003;24231;52.514;13.438;2023-03-01T15:51:13;3;3;
38451;PMS5003;24231;52.514;13.438;2023-03-01T15:53:40;22;21;
38451;PMS5003;24231;52.514;13.438;2023-03-01T15:56:08;3;3;
38451;PMS5003;24231;52.514;13.438;2023-03-01T15:58:35;3;3;
38451;PMS5003;24231;52.514;13.438;2023-03-01T16:01:02;4;4;
38451;PMS5003;24231;52.514;13.438;2023-03-01T16:03:35;3;3;
38451;PMS5003;24231;52.514;13.438;2023-03-01T16:06:02;5;4;
38451;PMS5003;24231;52.514;13.438;2023-03-01T16:08:29;8;5;
38451;PMS5003;24231;52.514;13.438;2023-03-01T16:10:57;10;4;
38451;PMS5003;24231;52.514;13.438;2023-03-01T16:13:24;3;3;
38451;PMS5003;24231;52.514;13.438;2023-03-01T16:15:52;3;3;
38451;PMS5003;24231;52.514;13.438;2023-03-01T16:18:19;3;3;
38451;PMS5003;24231;52.514;13.438;2023-03-01T16:20:46;4;4;
38451;PMS5003;24231;52.514;13.438;2023-03-01T16:23:14;5;3;
38451;PMS5003;24231;52.514;13.438;2023-03-01T16:25:41;4;4;
38451;PMS5003;24231;52.514;13.438;2023-03-01T16:28:09;8;7;
38451;PMS5003;24231;52.514;13.438;2023-03-01T16:30:36;2;2;
38451;PMS5003;24231;52.514;13.438;2023-03-01T16:33:04;5;5;
38451;PMS5003;24231;52.514;13.438;2023-03-01T16:35:32;5;5;
38451;PMS5003;24231;52.514;13.438;2023-03-01T16:37:59;5;4;
38451;PMS5003;24231;52.514;13.438;2023-03-01T16:40:27;3;3;
38451;PMS5003;24231;52.514;13.438;2023-03-01T16:42:55;4;4;